Latest Coastal Weather Observations for Creal Reef

IDQ60701

Issued at 2:51 am EST Tuesday 24 January 2017 (issued every 10 minutes, with the page automatically refreshed every 10 minutes)

About coastal observations | Map of coastal stations | Coastal observations for QLD | Marine services | Other Formats
Station Details ID: 200736 Name: CREAL REEF Lat: -20.53 Lon: 150.38 Height: 1.7 m
Data from the previous 72 hours. | See also: Recent months for locations in Queensland
Date/Time
EST
Temp
°C
Wind Pressure Rain since
9am
mm
Weather Cloud Vis
km
Sea
Height
m
Swell
Dir  Spd
kts
Gust
kts
hPa Trend Height
m
Period
s
Dir
24/02:30am 27.5 SE 19 22 1011.0 - - - - - - - - -
24/02:20am 27.5 SE 19 - 1011.0 - - - - - - - - -
24/02:00am 27.5 SE 18 20 1011.3 - - - - - - - - -
24/01:30am 27.6 SE 18 21 1011.3 - - - - - - - - -
24/01:20am 27.7 SE 19 - 1011.3 - - - - - - - - -
24/01:00am 27.6 SE 19 21 1011.6 - - - - - - - - -
24/12:30am 27.5 SSE 15 19 1011.9 - - - - - - - - -
24/12:20am 27.5 SSE 15 - 1011.8 - - - - - - - - -
24/12:00am 27.5 SSE 19 22 1012.1 - - - - - - - - -
 
Date/Time
EST
Temp
°C
Wind Pressure Rain since
9am
mm
Weather Cloud Vis
km
Sea
Height
m
Swell
Dir  Spd
kts
Gust
kts
hPa Trend Height
m
Period
s
Dir
23/11:30pm 27.5 SE 18 21 1012.4 - - - - - - - - -
23/11:20pm 27.6 SE 20 - 1012.3 - - - - - - - - -
23/11:00pm 27.7 SE 18 22 1012.5 - - - - - - - - -
23/10:30pm 27.6 SE 19 22 1012.5 - - - - - - - - -
23/10:20pm 27.7 SE 18 - 1012.4 - - - - - - - - -
23/10:00pm 27.6 SE 19 21 1012.4 - - - - - - - - -
23/09:30pm 27.8 SE 18 21 1012.5 - - - - - - - - -
23/09:20pm 27.7 SE 18 - 1012.5 - - - - - - - - -
23/09:00pm 27.8 SE 18 21 1012.7 - - - - - - - - -
23/08:30pm 27.8 SSE 19 21 1012.5 - - - - - - - - -
23/08:20pm 27.8 SSE 18 - 1012.4 - - - - - - - - -
23/08:00pm 27.8 SE 18 21 1012.5 - - - - - - - - -
23/07:30pm 28.1 SE 19 21 1012.5 - - - - - - - - -
23/07:20pm 28.0 SE 19 - 1012.4 - - - - - - - - -
23/07:00pm 28.0 SE 19 22 1012.3 - - - - - - - - -
23/06:30pm 28.0 SE 18 21 1012.0 - - - - - - - - -
23/06:20pm 28.0 SE 19 - 1011.7 - - - - - - - - -
23/06:00pm 27.9 SE 19 21 1011.3 - - - - - - - - -
23/05:30pm 27.8 SE 18 21 1010.7 - - - - - - - - -
23/05:20pm 27.9 SE 17 - 1010.5 - - - - - - - - -
23/05:00pm 27.9 SE 19 22 1010.2 - - - - - - - - -
23/04:30pm 28.0 SE 19 22 1010.0 - - - - - - - - -
23/04:20pm 27.8 ESE 18 - 1009.9 - - - - - - - - -
23/04:00pm 27.8 SE 18 21 1009.9 - - - - - - - - -
23/03:30pm 28.2 ESE 17 19 1010.0 - - - - - - - - -
23/03:20pm 27.9 ESE 16 - 1010.0 - - - - - - - - -
23/03:00pm 28.0 ESE 18 20 1010.4 - - - - - - - - -
23/02:30pm 27.9 ESE 18 20 1010.6 - - - - - - - - -
23/02:20pm 27.6 ESE 13 - 1010.6 - - - - - - - - -
23/02:00pm 26.4 ESE 14 16 1011.0 - - - - - - - - -
23/01:30pm 27.3 ESE 18 21 1011.1 - - - - - - - - -
23/01:20pm 27.4 ESE 16 - 1011.1 - - - - - - - - -
23/01:00pm 26.9 ESE 17 19 1011.5 - - - - - - - - -
23/12:30pm 26.9 ESE 13 15 1011.8 - - - - - - - - -
23/12:20pm 26.8 ESE 12 - 1011.8 - - - - - - - - -
23/12:00pm 26.9 ESE 15 17 1012.1 - - - - - - - - -
23/11:30am 26.7 ESE 16 18 1012.2 - - - - - - - - -
23/11:20am 26.6 ESE 18 - 1012.2 - - - - - - - - -
23/11:00am 26.8 ESE 19 21 1012.3 - - - - - - - - -
23/10:30am 26.8 ESE 18 20 1012.6 - - - - - - - - -
23/10:20am 26.8 ESE 17 - 1012.5 - - - - - - - - -
23/10:00am 26.1 SE 19 21 1012.6 - - - - - - - - -
23/09:38am 26.4 SE 16 20 1012.6 - - - - - - - - -
23/09:30am 25.9 S 7 9 1012.7 - - - - - - - - -
23/09:20am 25.5 S 7 - 1012.6 - - - - - - - - -
23/09:00am 24.9 S 5 8 1012.7 - - - - - - - - -
23/08:30am 24.7 SSE 6 9 1012.7 - - - - - - - - -
23/08:20am 24.7 SSE 10 - 1012.5 - - - - - - - - -
23/08:00am 25.2 S 10 13 1012.3 - - - - - - - - -
23/07:30am 25.4 S 8 9 1012.0 - - - - - - - - -
23/07:20am 25.3 S 9 - 1011.8 - - - - - - - - -
23/07:00am 25.8 SSE 10 13 1011.6 - - - - - - - - -
23/06:30am 26.3 SSE 7 11 1011.0 - - - - - - - - -
23/06:20am 26.6 SE 7 - 1010.9 - - - - - - - - -
23/06:00am 26.7 ESE 7 9 1010.7 - - - - - - - - -
23/05:30am 27.3 ESE 6 8 1010.2 - - - - - - - - -
23/05:20am 27.2 ESE 5 - 1010.0 - - - - - - - - -
23/05:00am 27.1 E 5 6 1009.7 - - - - - - - - -
23/04:30am 26.8 ENE 8 13 1009.3 - - - - - - - - -
23/04:20am 27.0 ENE 9 - 1009.2 - - - - - - - - -
23/04:00am 27.1 E 7 8 1009.3 - - - - - - - - -
23/03:30am 27.0 ESE 11 12 1009.3 - - - - - - - - -
23/03:20am 27.2 ESE 12 - 1009.3 - - - - - - - - -
23/03:00am 27.6 E 12 14 1009.5 - - - - - - - - -
23/02:30am 28.5 E 11 13 1009.9 - - - - - - - - -
23/02:20am 28.4 E 10 - 1009.9 - - - - - - - - -
23/02:00am 28.3 E 11 12 1010.2 - - - - - - - - -
23/01:30am 27.5 ENE 4 6 1010.3 - - - - - - - - -
23/01:20am 27.4 NE 6 - 1010.2 - - - - - - - - -
23/01:00am 27.3 ENE 9 13 1010.6 - - - - - - - - -
23/12:30am 27.2 E 8 13 1011.2 - - - - - - - - -
23/12:20am 27.5 E 14 - 1011.2 - - - - - - - - -
23/12:00am 28.2 ESE 14 16 1011.4 - - - - - - - - -
 
Date/Time
EST
Temp
°C
Wind Pressure Rain since
9am
mm
Weather Cloud Vis
km
Sea
Height
m
Swell
Dir  Spd
kts
Gust
kts
hPa Trend Height
m
Period
s
Dir
22/11:30pm 28.1 ESE 13 16 1011.5 - - - - - - - - -
22/11:20pm 28.0 ESE 14 - 1011.3 - - - - - - - - -
22/11:00pm 28.1 ESE 14 15 1011.6 - - - - - - - - -
22/10:30pm 28.1 ESE 14 17 1011.9 - - - - - - - - -
22/10:20pm 28.2 ESE 14 - 1012.0 - - - - - - - - -
22/10:00pm 28.3 ESE 14 16 1012.0 - - - - - - - - -
22/09:30pm 28.5 E 14 17 1011.8 - - - - - - - - -
22/09:20pm 28.3 ESE 14 - 1011.6 - - - - - - - - -
22/09:00pm 28.1 E 15 17 1011.4 - - - - - - - - -
22/08:30pm 28.1 ESE 15 17 1011.1 - - - - - - - - -
22/08:20pm 28.0 ESE 15 - 1010.9 - - - - - - - - -
22/08:00pm 28.2 ESE 15 17 1010.9 - - - - - - - - -
22/07:30pm 28.0 ESE 14 16 1010.7 - - - - - - - - -
22/07:20pm 28.2 ESE 14 - 1010.6 - - - - - - - - -
22/07:00pm 28.1 ESE 15 16 1010.6 - - - - - - - - -
22/06:30pm 28.2 ESE 15 17 1010.1 - - - - - - - - -
22/06:20pm 28.1 SE 15 - 1009.9 - - - - - - - - -
22/06:00pm 28.1 SE 16 19 1009.8 - - - - - - - - -
22/05:30pm 28.1 SE 15 18 1009.3 - - - - - - - - -
22/05:20pm 28.2 ESE 15 - 1009.3 - - - - - - - - -
22/05:00pm 28.2 SE 16 19 1009.3 - - - - - - - - -
22/04:30pm 28.2 SE 15 17 1009.3 - - - - - - - - -
22/04:20pm 28.2 ESE 15 - 1009.1 - - - - - - - - -
22/04:00pm 28.1 ESE 16 17 1009.3 - - - - - - - - -
22/03:30pm 28.2 SE 15 17 1009.3 - - - - - - - - -
22/03:20pm 28.2 SE 15 - 1009.5 - - - - - - - - -
22/03:00pm 28.2 ESE 15 17 1009.7 - - - - - - - - -
22/02:30pm 28.4 SE 16 19 1009.9 - - - - - - - - -
22/02:20pm 28.5 SE 16 - 1009.9 - - - - - - - - -
22/02:00pm 28.1 ESE 17 19 1010.1 - - - - - - - - -
22/01:30pm 28.2 ESE 15 18 1010.4 - - - - - - - - -
22/01:20pm 28.1 ESE 15 - 1010.3 - - - - - - - - -
22/01:00pm 28.2 ESE 16 18 1010.6 - - - - - - - - -
22/12:30pm 28.1 ESE 15 17 1010.9 - - - - - - - - -
22/12:20pm 28.1 ESE 15 - 1010.8 - - - - - - - - -
22/12:00pm 28.1 SE 13 15 1011.0 - - - - - - - - -
22/11:30am 28.2 ESE 11 12 1011.3 - - - - - - - - -
22/11:20am 28.2 SE 11 - 1011.3 - - - - - - - - -
22/11:00am 28.1 ESE 11 13 1011.4 - - - - - - - - -
22/10:30am 28.3 ESE 9 11 1011.7 - - - - - - - - -
22/10:20am 28.1 SE 9 - 1011.6 - - - - - - - - -
22/10:00am 28.3 ESE 9 10 1011.6 - - - - - - - - -
22/09:30am 28.3 ESE 8 9 1011.5 - - - - - - - - -
22/09:20am 28.4 E 7 - 1011.4 - - - - - - - - -
22/09:00am 28.4 ESE 6 8 1011.5 - - - - - - - - -
22/08:30am 28.4 ENE 5 6 1011.4 - - - - - - - - -
22/08:20am 28.5 ENE 5 - 1011.2 - - - - - - - - -
22/08:00am 28.2 NE 5 6 1011.0 - - - - - - - - -
22/07:30am 27.9 NE 6 7 1010.6 - - - - - - - - -
22/07:20am 28.1 NNE 6 - 1010.5 - - - - - - - - -
22/07:00am 28.0 NE 7 8 1010.5 - - - - - - - - -
22/06:30am 27.8 NNE 7 9 1010.0 - - - - - - - - -
22/06:20am 27.7 NNE 7 - 1009.6 - - - - - - - - -
22/06:00am 27.8 NNE 7 8 1009.0 - - - - - - - - -
22/05:30am 27.6 NNE 6 8 1008.4 - - - - - - - - -
22/05:20am 27.7 NNE 6 - 1008.4 - - - - - - - - -
22/05:00am 27.7 NNE 8 9 1008.1 - - - - - - - - -
22/04:30am 27.6 NNE 7 8 1007.7 - - - - - - - - -
22/04:20am 27.6 NE 7 - 1007.7 - - - - - - - - -
22/04:00am 27.7 NNE 8 9 1007.6 - - - - - - - - -
22/03:30am 27.7 NNE 8 9 1007.7 - - - - - - - - -
22/03:20am 27.8 NNE 8 - 1007.9 - - - - - - - - -
22/03:00am 27.8 NNE 9 11 1007.9 - - - - - - - - -
22/02:30am 27.7 NNE 10 11 1008.1 - - - - - - - - -
22/02:20am 27.9 NNE 9 - 1008.2 - - - - - - - - -
22/02:00am 27.9 NNE 10 12 1008.3 - - - - - - - - -
22/01:30am 28.0 NNE 10 11 1008.4 - - - - - - - - -
22/01:20am 27.9 NNE 10 - 1008.5 - - - - - - - - -
22/01:00am 28.0 NNE 9 11 1008.8 - - - - - - - - -
22/12:30am 28.1 NNE 7 8 1009.3 - - - - - - - - -
22/12:20am 28.0 NE 7 - 1009.3 - - - - - - - - -
22/12:00am 28.1 NE 8 9 1009.6 - - - - - - - - -
 
Date/Time
EST
Temp
°C
Wind Pressure Rain since
9am
mm
Weather Cloud Vis
km
Sea
Height
m
Swell
Dir  Spd
kts
Gust
kts
hPa Trend Height
m
Period
s
Dir
21/11:30pm 28.1 NE 7 9 1009.9 - - - - - - - - -
21/11:20pm 28.1 NE 6 - 1009.9 - - - - - - - - -
21/11:00pm 28.1 NE 7 9 1010.0 - - - - - - - - -
21/10:30pm 28.2 NE 8 10 1010.0 - - - - - - - - -
21/10:20pm 28.1 NE 8 - 1009.9 - - - - - - - - -
21/10:00pm 28.1 NE 8 10 1009.8 - - - - - - - - -
21/09:30pm 28.2 NE 8 10 1009.3 - - - - - - - - -
21/09:20pm 28.1 NE 8 - 1009.1 - - - - - - - - -
21/09:00pm 28.1 NE 9 11 1008.7 - - - - - - - - -
21/08:30pm 28.2 NE 9 10 1008.4 - - - - - - - - -
21/08:20pm 28.1 NE 9 - 1008.2 - - - - - - - - -
21/08:00pm 28.1 NNE 9 12 1007.9 - - - - - - - - -
21/07:30pm 28.1 NNE 9 11 1007.6 - - - - - - - - -
21/07:20pm 28.1 NNE 9 - 1007.5 - - - - - - - - -
21/07:00pm 28.3 NNE 10 11 1007.3 - - - - - - - - -
21/06:30pm 28.2 NE 9 11 1007.1 - - - - - - - - -
21/06:20pm 28.2 NE 9 - 1007.1 - - - - - - - - -
21/06:00pm 28.3 NNE 11 13 1006.7 - - - - - - - - -
21/05:30pm 28.2 NNE 8 10 1006.7 - - - - - - - - -
21/05:20pm 28.2 NNE 8 - 1006.6 - - - - - - - - -
21/05:00pm 28.2 NNE 8 10 1006.5 - - - - - - - - -
21/04:30pm 28.3 NNE 7 10 1006.5 - - - - - - - - -
21/04:20pm 28.4 NNE 8 - 1006.4 - - - - - - - - -
21/04:00pm 28.3 NNE 7 8 1006.7 - - - - - - - - -
21/03:30pm 28.3 NNE 6 8 1006.9 - - - - - - - - -
21/03:20pm 28.3 NNE 5 - 1007.0 - - - - - - - - -
21/03:00pm 28.4 NNE 5 6 1007.2 - - - - - - - - -
21/02:30pm 28.3 N 6 8 1007.4 - - - - - - - - -
21/02:20pm 28.3 N 6 - 1007.4 - - - - - - - - -
21/02:00pm 28.3 N 8 9 1007.6 - - - - - - - - -
21/01:30pm 28.2 NNE 9 11 1007.8 - - - - - - - - -
21/01:20pm 28.2 NNE 10 - 1007.8 - - - - - - - - -
21/01:00pm 28.2 NNE 10 11 1007.9 - - - - - - - - -
21/12:30pm 28.1 N 9 11 1008.2 - - - - - - - - -
21/12:20pm 28.1 NNE 9 - 1008.3 - - - - - - - - -
21/12:00pm 28.1 NNE 8 9 1008.4 - - - - - - - - -
21/11:30am 28.1 N 6 7 1008.7 - - - - - - - - -
21/11:20am 28.2 N 7 - 1008.8 - - - - - - - - -
21/11:00am 28.1 N 7 8 1009.1 - - - - - - - - -
21/10:30am 28.1 NNE 8 10 1009.3 - - - - - - - - -
21/10:20am 28.0 NNE 8 - 1009.3 - - - - - - - - -
21/10:00am 28.1 NNE 7 9 1009.6 - - - - - - - - -
21/09:30am 28.1 NNE 7 8 1009.7 - - - - - - - - -
21/09:20am 28.0 NNE 7 - 1009.5 - - - - - - - - -
21/09:00am 28.1 NNE 7 9 1009.3 - - - - - - - - -
21/08:30am 27.9 NNE 7 9 1009.1 - - - - - - - - -
21/08:20am 28.0 NNE 8 - 1009.1 - - - - - - - - -
21/08:00am 27.9 NNE 8 9 1008.9 - - - - - - - - -
21/07:30am 27.9 NNE 6 7 1009.1 - - - - - - - - -
21/07:20am 27.9 N 6 - 1009.1 - - - - - - - - -
21/07:00am 27.9 NNE 7 9 1008.9 - - - - - - - - -
21/06:30am 27.8 NNE 8 9 1008.8 - - - - - - - - -
21/06:20am 27.8 NE 8 - 1008.7 - - - - - - - - -
21/06:00am 27.8 NE 10 12 1008.3 - - - - - - - - -
21/05:30am 27.7 NE 9 10 1008.1 - - - - - - - - -
21/05:20am 27.6 NE 10 - 1008.0 - - - - - - - - -
21/05:00am 27.8 NE 8 10 1007.7 - - - - - - - - -
21/04:30am 27.7 NNE 9 10 1007.0 - - - - - - - - -
21/04:20am 27.8 NE 10 - 1007.0 - - - - - - - - -
21/04:00am 27.8 NE 9 11 1006.7 - - - - - - - - -
21/03:30am 27.8 ENE 11 13 1006.7 - - - - - - - - -
21/03:20am 27.8 NE 11 - 1006.7 - - - - - - - - -
21/03:00am 27.9 NE 11 13 1006.6 - - - - - - - - -

Other Formats:

Comma delimited format used in spreadsheet applications
http://www.bom.gov.au/fwo/IDQ60701/IDQ60701.94371.axf

JavaScript Object Notation format (JSON) in row-major order
http://www.bom.gov.au/fwo/IDQ60701/IDQ60701.94371.json